CheckWX is a tool to help pilots better visualize weather data.  It is not intended as a substitute for an official pre-flight weather briefing.

09:08:43 UTC

KRVS METAR
Richard Lloyd Jones Jr Airport
Tulsa, Oklahoma, USA
Current

16 mins ago

KRVS 220853Z AUTO 11008KT 10SM BKN034 OVC055 07/01 A3009 RMK AO2 SLP195 T00670011 58007
Observed
Feb-22 @ 08:53 UTC
Wind
  • 110° at 8 KTS
Visibility
10 SM
Flight Rules
VFR
Cloud Levels
  • Broken at 3,400' AGL
  • Overcast at 5,500' AGL
Temperature
C / 45°F
Dewpoint
C / 34°F
Humidity
66%
Altimeter
30.09" Hg
Pressure
1019.5 hPa
Previous

1 hour ago

KRVS 220753Z AUTO 09006KT 10SM OVC049 07/02 A3012 RMK AO2 SLP203 T00670017
Observed
Feb-22 @ 07:53 UTC
Wind
  • 090° at 6 KTS
Visibility
10 SM
Flight Rules
VFR
Cloud Levels
  • Overcast at 4,900' AGL
Temperature
C / 45°F
Dewpoint
C / 36°F
Humidity
71%
Altimeter
30.12" Hg
Pressure
1020.3 hPa
Previous

2 hours ago

KRVS 220653Z AUTO 06003KT 10SM OVC049 07/02 A3012 RMK AO2 SLP204 T00670017
Observed
Feb-22 @ 06:53 UTC
Wind
  • 060° at 3 KTS
Visibility
10 SM
Flight Rules
VFR
Cloud Levels
  • Overcast at 4,900' AGL
Temperature
C / 45°F
Dewpoint
C / 36°F
Humidity
71%
Altimeter
30.12" Hg
Pressure
1020.4 hPa